This is the latest recevied weather packets stored in our database for station/object EW6851. If no packets are shown the sender has not sent any weather packets the latest 10 day(s).
| Time | Temp. | Humidity | Pressure | Rain* | Wind** | Luminosity | Snow |
|---|---|---|---|---|---|---|---|
| 1778217119 | 18.33° C | 72% | 1010.1 hPa | 0 mm | - | 81 W/m² | - |
| 1778216222 | 18.33° C | 72% | 1009.7 hPa | 0 mm | - | 47 W/m² | - |
| 1778215025 | 17.78° C | 74% | 1009.6 hPa | 0 mm | - | 33 W/m² | - |
| 1778214119 | 18.33° C | 74% | 1009.5 hPa | 0 mm | - | 21 W/m² | - |
| 1778213822 | 18.33° C | 74% | 1009.5 hPa | 0 mm | - | 21 W/m² | - |
| 1778213220 | 18.33° C | 73% | 1009.4 hPa | 0 mm | - | 9 W/m² | - |
| 1778211722 | 18.89° C | 71% | 1008.9 hPa | 0 mm | - | 0 W/m² | - |
| 1778209919 | 19.44° C | 69% | 1008.7 hPa | 0 mm | - | 0 W/m² | - |
| 1778209320 | 19.44° C | 69% | 1008.7 hPa | 0 mm | - | 0 W/m² | - |
| 1778209022 | 19.44° C | 69% | 1008.8 hPa | 0 mm | - | 0 W/m² | - |
| 1778207822 | 19.44° C | 68% | 1008.7 hPa | 0 mm | - | 0 W/m² | - |
| 1778207522 | 19.44° C | 68% | 1008.7 hPa | 0 mm | - | 0 W/m² | - |
| 1778207225 | 19.44° C | 68% | 1008.7 hPa | 0 mm | - | 0 W/m² | - |
| 1778206628 | 20° C | 67% | 1008.6 hPa | 0 mm | - | 0 W/m² | - |
| 1778206025 | 20° C | 66% | 1008.4 hPa | 0 mm | - | 0 W/m² | - |
| 1778205420 | 20° C | 66% | 1008.4 hPa | 0 mm | - | 0 W/m² | - |
| 1778204817 | 20° C | 67% | 1008.4 hPa | 0 mm | - | 0 W/m² | - |
| 1778203321 | 20° C | 67% | 1008.4 hPa | 0 mm | - | 0 W/m² | - |
| 1778201518 | 20.56° C | 63% | 1008.5 hPa | 0 mm | - | 0 W/m² | - |
| 1778198818 | 20.56° C | 65% | 1008.9 hPa | 0 mm | - | 0 W/m² | - |
| 1778197621 | 20° C | 64% | 1009.1 hPa | 0 mm | - | 0 W/m² | - |
| 1778197317 | 20° C | 64% | 1009.2 hPa | 0 mm | - | 0 W/m² | - |
| 1778197020 | 20° C | 64% | 1009.3 hPa | 0 mm | - | 0 W/m² | - |
| 1778196124 | 20° C | 66% | 1009.4 hPa | 0 mm | - | 0 W/m² | - |
| 1778195518 | 20° C | 66% | 1009.7 hPa | 0 mm | - | 0 W/m² | - |
* Rain latest hour (hover to see other rain measurements)
** Current wind speed in m/s (hover to see current wind gust speed)